sensor_id;sensor_type;location;lat;lon;timestamp;P1;durP1;ratioP1;P2;durP2;ratioP2
70953;SDS011;58618;47.490;8.736;2024-03-08T00:00:52;64.18;;;23.30;;
70953;SDS011;58618;47.490;8.736;2024-03-08T00:03:41;62.45;;;21.60;;
70953;SDS011;58618;47.490;8.736;2024-03-08T00:06:28;66.25;;;22.27;;
70953;SDS011;58618;47.490;8.736;2024-03-08T00:09:15;66.17;;;21.93;;
70953;SDS011;58618;47.490;8.736;2024-03-08T00:12:03;59.33;;;20.70;;
70953;SDS011;58618;47.490;8.736;2024-03-08T00:14:50;63.35;;;22.48;;
70953;SDS011;58618;47.490;8.736;2024-03-08T00:17:38;62.17;;;20.95;;
70953;SDS011;58618;47.490;8.736;2024-03-08T00:20:27;59.00;;;20.33;;
70953;SDS011;58618;47.490;8.736;2024-03-08T00:23:14;57.07;;;20.73;;
70953;SDS011;58618;47.490;8.736;2024-03-08T00:26:02;58.60;;;22.30;;
70953;SDS011;58618;47.490;8.736;2024-03-08T00:28:50;56.95;;;20.90;;
70953;SDS011;58618;47.490;8.736;2024-03-08T00:31:37;58.80;;;21.80;;
70953;SDS011;58618;47.490;8.736;2024-03-08T00:34:25;56.47;;;21.35;;
70953;SDS011;58618;47.490;8.736;2024-03-08T00:37:14;63.43;;;21.50;;
70953;SDS011;58618;47.490;8.736;2024-03-08T00:40:01;58.50;;;21.10;;
70953;SDS011;58618;47.490;8.736;2024-03-08T00:42:50;57.05;;;22.10;;
70953;SDS011;58618;47.490;8.736;2024-03-08T00:45:39;52.00;;;19.23;;
70953;SDS011;58618;47.490;8.736;2024-03-08T00:48:28;56.30;;;20.25;;
70953;SDS011;58618;47.490;8.736;2024-03-08T00:51:16;47.20;;;19.30;;
70953;SDS011;58618;47.490;8.736;2024-03-08T00:54:05;51.03;;;20.90;;
70953;SDS011;58618;47.490;8.736;2024-03-08T00:56:52;48.60;;;17.60;;
70953;SDS011;58618;47.490;8.736;2024-03-08T00:59:41;44.47;;;18.20;;
70953;SDS011;58618;47.490;8.736;2024-03-08T01:02:28;49.88;;;19.02;;
70953;SDS011;58618;47.490;8.736;2024-03-08T01:05:16;47.70;;;19.70;;
70953;SDS011;58618;47.490;8.736;2024-03-08T01:08:03;52.55;;;20.88;;
70953;SDS011;58618;47.490;8.736;2024-03-08T01:10:53;43.65;;;18.70;;
70953;SDS011;58618;47.490;8.736;2024-03-08T01:13:40;48.15;;;19.25;;
70953;SDS011;58618;47.490;8.736;2024-03-08T01:16:28;46.88;;;18.55;;
70953;SDS011;58618;47.490;8.736;2024-03-08T01:19:15;47.03;;;19.03;;
70953;SDS011;58618;47.490;8.736;2024-03-08T01:22:03;48.55;;;18.83;;
70953;SDS011;58618;47.490;8.736;2024-03-08T01:24:51;44.03;;;18.45;;
70953;SDS011;58618;47.490;8.736;2024-03-08T01:27:39;47.17;;;19.63;;
70953;SDS011;58618;47.490;8.736;2024-03-08T01:30:27;49.42;;;19.67;;
70953;SDS011;58618;47.490;8.736;2024-03-08T01:33:14;50.00;;;19.20;;
70953;SDS011;58618;47.490;8.736;2024-03-08T01:36:02;48.13;;;19.38;;
70953;SDS011;58618;47.490;8.736;2024-03-08T01:38:49;48.28;;;20.13;;
70953;SDS011;58618;47.490;8.736;2024-03-08T01:41:37;50.80;;;20.73;;
70953;SDS011;58618;47.490;8.736;2024-03-08T01:44:27;53.13;;;20.80;;
70953;SDS011;58618;47.490;8.736;2024-03-08T01:47:16;51.70;;;21.00;;
70953;SDS011;58618;47.490;8.736;2024-03-08T01:50:04;52.40;;;21.52;;
70953;SDS011;58618;47.490;8.736;2024-03-08T01:52:52;54.00;;;22.52;;
70953;SDS011;58618;47.490;8.736;2024-03-08T01:55:41;54.38;;;22.73;;
70953;SDS011;58618;47.490;8.736;2024-03-08T01:58:29;51.58;;;20.45;;
70953;SDS011;58618;47.490;8.736;2024-03-08T02:01:20;52.43;;;19.63;;
70953;SDS011;58618;47.490;8.736;2024-03-08T02:04:07;47.83;;;19.70;;
70953;SDS011;58618;47.490;8.736;2024-03-08T02:06:55;50.65;;;22.55;;
70953;SDS011;58618;47.490;8.736;2024-03-08T02:09:43;54.08;;;22.40;;
70953;SDS011;58618;47.490;8.736;2024-03-08T02:12:31;51.83;;;20.95;;
70953;SDS011;58618;47.490;8.736;2024-03-08T02:15:19;52.07;;;21.00;;
70953;SDS011;58618;47.490;8.736;2024-03-08T02:18:09;52.85;;;22.17;;
70953;SDS011;58618;47.490;8.736;2024-03-08T02:20:58;49.30;;;20.95;;
70953;SDS011;58618;47.490;8.736;2024-03-08T02:23:46;53.47;;;22.33;;
70953;SDS011;58618;47.490;8.736;2024-03-08T02:26:33;47.33;;;21.02;;
70953;SDS011;58618;47.490;8.736;2024-03-08T02:29:21;51.40;;;20.60;;
70953;SDS011;58618;47.490;8.736;2024-03-08T02:32:10;52.97;;;21.98;;
70953;SDS011;58618;47.490;8.736;2024-03-08T02:34:57;56.50;;;21.52;;
70953;SDS011;58618;47.490;8.736;2024-03-08T02:37:47;52.47;;;21.35;;
70953;SDS011;58618;47.490;8.736;2024-03-08T02:40:34;51.55;;;19.27;;
70953;SDS011;58618;47.490;8.736;2024-03-08T02:43:22;52.47;;;21.80;;
70953;SDS011;58618;47.490;8.736;2024-03-08T02:46:10;53.08;;;22.05;;
70953;SDS011;58618;47.490;8.736;2024-03-08T02:48:57;50.20;;;21.45;;
70953;SDS011;58618;47.490;8.736;2024-03-08T02:51:44;54.90;;;20.90;;
70953;SDS011;58618;47.490;8.736;2024-03-08T02:54:33;52.70;;;21.00;;
70953;SDS011;58618;47.490;8.736;2024-03-08T02:57:22;50.57;;;20.93;;
70953;SDS011;58618;47.490;8.736;2024-03-08T03:00:10;47.20;;;18.40;;
70953;SDS011;58618;47.490;8.736;2024-03-08T03:02:58;46.75;;;19.02;;
70953;SDS011;58618;47.490;8.736;2024-03-08T03:05:48;50.92;;;19.08;;
70953;SDS011;58618;47.490;8.736;2024-03-08T03:08:36;47.88;;;20.30;;
70953;SDS011;58618;47.490;8.736;2024-03-08T03:11:25;49.27;;;20.47;;
70953;SDS011;58618;47.490;8.736;2024-03-08T03:14:13;45.65;;;18.98;;
70953;SDS011;58618;47.490;8.736;2024-03-08T03:17:01;48.53;;;20.27;;
70953;SDS011;58618;47.490;8.736;2024-03-08T03:19:50;47.97;;;18.45;;
70953;SDS011;58618;47.490;8.736;2024-03-08T03:22:38;44.40;;;17.98;;
70953;SDS011;58618;47.490;8.736;2024-03-08T03:25:26;48.20;;;20.03;;
70953;SDS011;58618;47.490;8.736;2024-03-08T03:28:21;46.47;;;18.85;;
70953;SDS011;58618;47.490;8.736;2024-03-08T03:31:09;44.50;;;18.02;;
70953;SDS011;58618;47.490;8.736;2024-03-08T03:34:00;48.00;;;18.85;;
70953;SDS011;58618;47.490;8.736;2024-03-08T03:36:48;47.60;;;20.20;;
70953;SDS011;58618;47.490;8.736;2024-03-08T03:39:35;47.90;;;19.43;;
70953;SDS011;58618;47.490;8.736;2024-03-08T03:42:34;46.58;;;18.90;;
70953;SDS011;58618;47.490;8.736;2024-03-08T03:45:24;49.25;;;19.70;;
70953;SDS011;58618;47.490;8.736;2024-03-08T03:48:12;44.78;;;18.85;;
70953;SDS011;58618;47.490;8.736;2024-03-08T03:50:59;47.53;;;18.58;;
70953;SDS011;58618;47.490;8.736;2024-03-08T03:53:46;43.20;;;17.77;;
70953;SDS011;58618;47.490;8.736;2024-03-08T03:56:34;41.65;;;18.20;;
70953;SDS011;58618;47.490;8.736;2024-03-08T03:59:21;46.30;;;17.95;;
70953;SDS011;58618;47.490;8.736;2024-03-08T04:02:11;44.33;;;17.50;;
70953;SDS011;58618;47.490;8.736;2024-03-08T04:04:59;47.03;;;20.17;;
70953;SDS011;58618;47.490;8.736;2024-03-08T04:07:46;47.60;;;20.87;;
70953;SDS011;58618;47.490;8.736;2024-03-08T04:10:33;44.95;;;17.65;;
70953;SDS011;58618;47.490;8.736;2024-03-08T04:13:21;45.35;;;17.83;;
70953;SDS011;58618;47.490;8.736;2024-03-08T04:16:08;43.50;;;18.33;;
70953;SDS011;58618;47.490;8.736;2024-03-08T04:18:58;47.63;;;19.55;;
70953;SDS011;58618;47.490;8.736;2024-03-08T04:21:50;48.43;;;20.20;;
70953;SDS011;58618;47.490;8.736;2024-03-08T04:24:37;50.70;;;19.92;;
70953;SDS011;58618;47.490;8.736;2024-03-08T04:27:25;49.17;;;19.48;;
70953;SDS011;58618;47.490;8.736;2024-03-08T04:30:13;48.47;;;19.63;;
70953;SDS011;58618;47.490;8.736;2024-03-08T04:33:00;43.00;;;17.88;;
70953;SDS011;58618;47.490;8.736;2024-03-08T04:35:50;44.53;;;17.80;;
70953;SDS011;58618;47.490;8.736;2024-03-08T04:38:38;46.78;;;17.98;;
70953;SDS011;58618;47.490;8.736;2024-03-08T04:41:26;43.45;;;19.58;;
70953;SDS011;58618;47.490;8.736;2024-03-08T04:44:16;45.75;;;18.90;;
70953;SDS011;58618;47.490;8.736;2024-03-08T04:47:04;46.50;;;17.75;;
70953;SDS011;58618;47.490;8.736;2024-03-08T04:49:52;48.77;;;18.17;;
70953;SDS011;58618;47.490;8.736;2024-03-08T04:52:42;47.55;;;17.90;;
70953;SDS011;58618;47.490;8.736;2024-03-08T04:55:30;46.00;;;19.70;;
70953;SDS011;58618;47.490;8.736;2024-03-08T04:58:17;47.65;;;18.73;;
70953;SDS011;58618;47.490;8.736;2024-03-08T05:01:04;45.38;;;18.63;;
70953;SDS011;58618;47.490;8.736;2024-03-08T05:03:52;48.57;;;17.97;;
70953;SDS011;58618;47.490;8.736;2024-03-08T05:06:41;51.90;;;19.15;;
70953;SDS011;58618;47.490;8.736;2024-03-08T05:09:30;47.63;;;18.67;;
70953;SDS011;58618;47.490;8.736;2024-03-08T05:12:18;42.22;;;16.55;;
70953;SDS011;58618;47.490;8.736;2024-03-08T05:15:06;45.17;;;19.73;;
70953;SDS011;58618;47.490;8.736;2024-03-08T05:17:54;39.43;;;15.80;;
70953;SDS011;58618;47.490;8.736;2024-03-08T05:20:43;47.58;;;18.25;;
70953;SDS011;58618;47.490;8.736;2024-03-08T05:23:31;47.35;;;18.48;;
70953;SDS011;58618;47.490;8.736;2024-03-08T05:26:19;45.15;;;18.40;;
70953;SDS011;58618;47.490;8.736;2024-03-08T05:29:08;44.95;;;18.00;;
70953;SDS011;58618;47.490;8.736;2024-03-08T05:31:55;43.90;;;16.87;;
70953;SDS011;58618;47.490;8.736;2024-03-08T05:34:43;49.20;;;18.08;;
70953;SDS011;58618;47.490;8.736;2024-03-08T05:37:31;49.42;;;17.75;;
70953;SDS011;58618;47.490;8.736;2024-03-08T05:40:18;49.70;;;18.52;;
70953;SDS011;58618;47.490;8.736;2024-03-08T05:43:07;47.45;;;16.98;;
70953;SDS011;58618;47.490;8.736;2024-03-08T05:45:55;44.57;;;16.93;;
70953;SDS011;58618;47.490;8.736;2024-03-08T05:48:42;46.15;;;17.35;;
70953;SDS011;58618;47.490;8.736;2024-03-08T05:51:29;43.60;;;17.48;;
70953;SDS011;58618;47.490;8.736;2024-03-08T05:54:17;45.78;;;19.10;;
70953;SDS011;58618;47.490;8.736;2024-03-08T05:57:04;44.17;;;17.67;;
70953;SDS011;58618;47.490;8.736;2024-03-08T05:59:53;41.73;;;17.20;;
70953;SDS011;58618;47.490;8.736;2024-03-08T06:02:41;41.47;;;17.17;;
70953;SDS011;58618;47.490;8.736;2024-03-08T06:05:28;43.70;;;16.23;;
70953;SDS011;58618;47.490;8.736;2024-03-08T06:08:15;46.08;;;18.35;;
70953;SDS011;58618;47.490;8.736;2024-03-08T06:11:04;39.95;;;16.20;;
70953;SDS011;58618;47.490;8.736;2024-03-08T06:13:52;41.23;;;16.17;;
70953;SDS011;58618;47.490;8.736;2024-03-08T06:16:46;42.50;;;17.45;;
70953;SDS011;58618;47.490;8.736;2024-03-08T06:19:35;43.10;;;16.85;;
70953;SDS011;58618;47.490;8.736;2024-03-08T06:22:23;42.05;;;17.77;;
70953;SDS011;58618;47.490;8.736;2024-03-08T06:25:10;44.30;;;18.13;;
70953;SDS011;58618;47.490;8.736;2024-03-08T06:27:59;48.20;;;19.73;;
70953;SDS011;58618;47.490;8.736;2024-03-08T06:30:47;43.22;;;16.80;;
70953;SDS011;58618;47.490;8.736;2024-03-08T06:33:38;39.28;;;16.58;;
70953;SDS011;58618;47.490;8.736;2024-03-08T06:36:25;41.45;;;17.45;;
70953;SDS011;58618;47.490;8.736;2024-03-08T06:39:14;42.88;;;17.85;;
70953;SDS011;58618;47.490;8.736;2024-03-08T06:42:01;42.83;;;17.57;;
70953;SDS011;58618;47.490;8.736;2024-03-08T06:44:50;42.20;;;17.08;;
70953;SDS011;58618;47.490;8.736;2024-03-08T06:47:41;43.38;;;17.25;;
70953;SDS011;58618;47.490;8.736;2024-03-08T06:50:30;43.80;;;17.45;;
70953;SDS011;58618;47.490;8.736;2024-03-08T06:53:18;42.63;;;16.35;;
70953;SDS011;58618;47.490;8.736;2024-03-08T06:56:05;39.47;;;17.27;;
70953;SDS011;58618;47.490;8.736;2024-03-08T06:58:53;40.90;;;17.75;;
70953;SDS011;58618;47.490;8.736;2024-03-08T07:01:41;41.53;;;17.27;;
70953;SDS011;58618;47.490;8.736;2024-03-08T07:04:28;42.97;;;17.35;;
70953;SDS011;58618;47.490;8.736;2024-03-08T07:07:17;41.85;;;18.67;;
70953;SDS011;58618;47.490;8.736;2024-03-08T07:10:06;40.53;;;15.50;;
70953;SDS011;58618;47.490;8.736;2024-03-08T07:12:56;38.92;;;15.68;;
70953;SDS011;58618;47.490;8.736;2024-03-08T07:15:44;40.40;;;15.80;;
70953;SDS011;58618;47.490;8.736;2024-03-08T07:18:32;37.08;;;16.65;;
70953;SDS011;58618;47.490;8.736;2024-03-08T07:21:20;40.42;;;16.35;;
70953;SDS011;58618;47.490;8.736;2024-03-08T07:24:09;38.63;;;15.20;;
70953;SDS011;58618;47.490;8.736;2024-03-08T07:27:13;35.63;;;15.75;;
70953;SDS011;58618;47.490;8.736;2024-03-08T07:30:01;33.92;;;14.13;;
70953;SDS011;58618;47.490;8.736;2024-03-08T07:32:48;36.67;;;15.23;;
70953;SDS011;58618;47.490;8.736;2024-03-08T07:35:35;36.40;;;16.42;;
70953;SDS011;58618;47.490;8.736;2024-03-08T07:38:23;40.97;;;17.17;;
70953;SDS011;58618;47.490;8.736;2024-03-08T07:41:12;36.72;;;16.63;;
70953;SDS011;58618;47.490;8.736;2024-03-08T07:43:59;38.22;;;15.70;;
70953;SDS011;58618;47.490;8.736;2024-03-08T07:46:49;35.42;;;14.18;;
70953;SDS011;58618;47.490;8.736;2024-03-08T07:49:36;37.28;;;16.23;;
70953;SDS011;58618;47.490;8.736;2024-03-08T07:52:24;36.43;;;18.53;;
70953;SDS011;58618;47.490;8.736;2024-03-08T07:55:11;36.63;;;14.75;;
70953;SDS011;58618;47.490;8.736;2024-03-08T07:58:00;32.90;;;13.93;;
70953;SDS011;58618;47.490;8.736;2024-03-08T08:00:48;35.08;;;15.30;;
70953;SDS011;58618;47.490;8.736;2024-03-08T08:03:36;34.08;;;15.45;;
70953;SDS011;58618;47.490;8.736;2024-03-08T08:06:23;34.63;;;14.57;;
70953;SDS011;58618;47.490;8.736;2024-03-08T08:09:11;30.63;;;12.90;;
70953;SDS011;58618;47.490;8.736;2024-03-08T08:12:01;36.58;;;13.75;;
70953;SDS011;58618;47.490;8.736;2024-03-08T08:14:50;33.03;;;13.63;;
70953;SDS011;58618;47.490;8.736;2024-03-08T08:17:38;31.05;;;13.93;;
70953;SDS011;58618;47.490;8.736;2024-03-08T08:20:25;33.23;;;14.57;;
70953;SDS011;58618;47.490;8.736;2024-03-08T08:23:14;33.85;;;14.43;;
70953;SDS011;58618;47.490;8.736;2024-03-08T08:26:02;33.70;;;13.77;;
70953;SDS011;58618;47.490;8.736;2024-03-08T08:28:50;30.73;;;13.80;;
70953;SDS011;58618;47.490;8.736;2024-03-08T08:31:40;31.98;;;13.30;;
70953;SDS011;58618;47.490;8.736;2024-03-08T08:34:27;29.17;;;13.90;;
70953;SDS011;58618;47.490;8.736;2024-03-08T08:37:16;30.58;;;12.98;;
70953;SDS011;58618;47.490;8.736;2024-03-08T08:40:03;33.95;;;12.98;;
70953;SDS011;58618;47.490;8.736;2024-03-08T08:42:55;29.52;;;13.00;;
70953;SDS011;58618;47.490;8.736;2024-03-08T08:45:43;30.33;;;14.27;;
70953;SDS011;58618;47.490;8.736;2024-03-08T08:48:34;30.93;;;15.07;;
70953;SDS011;58618;47.490;8.736;2024-03-08T08:51:21;31.08;;;13.32;;
70953;SDS011;58618;47.490;8.736;2024-03-08T08:54:09;28.88;;;13.20;;
70953;SDS011;58618;47.490;8.736;2024-03-08T08:56:57;32.20;;;16.10;;
70953;SDS011;58618;47.490;8.736;2024-03-08T08:59:44;27.80;;;13.18;;
70953;SDS011;58618;47.490;8.736;2024-03-08T09:02:32;32.83;;;15.00;;
70953;SDS011;58618;47.490;8.736;2024-03-08T09:05:20;32.42;;;13.63;;
70953;SDS011;58618;47.490;8.736;2024-03-08T09:08:10;31.48;;;14.18;;
70953;SDS011;58618;47.490;8.736;2024-03-08T09:10:58;34.28;;;14.50;;
70953;SDS011;58618;47.490;8.736;2024-03-08T09:13:46;33.00;;;15.90;;
70953;SDS011;58618;47.490;8.736;2024-03-08T09:16:34;27.43;;;13.37;;
70953;SDS011;58618;47.490;8.736;2024-03-08T09:19:22;31.02;;;14.02;;
70953;SDS011;58618;47.490;8.736;2024-03-08T09:22:13;33.50;;;14.35;;
70953;SDS011;58618;47.490;8.736;2024-03-08T09:25:00;29.33;;;14.05;;
70953;SDS011;58618;47.490;8.736;2024-03-08T09:27:48;30.98;;;14.20;;
70953;SDS011;58618;47.490;8.736;2024-03-08T09:30:46;33.57;;;14.47;;
70953;SDS011;58618;47.490;8.736;2024-03-08T09:33:33;30.38;;;14.18;;
70953;SDS011;58618;47.490;8.736;2024-03-08T09:36:21;30.15;;;14.07;;
70953;SDS011;58618;47.490;8.736;2024-03-08T09:39:10;29.88;;;13.43;;
70953;SDS011;58618;47.490;8.736;2024-03-08T09:42:02;30.50;;;13.77;;
70953;SDS011;58618;47.490;8.736;2024-03-08T09:44:51;35.90;;;15.60;;
70953;SDS011;58618;47.490;8.736;2024-03-08T09:47:39;31.70;;;13.52;;
70953;SDS011;58618;47.490;8.736;2024-03-08T09:50:27;28.60;;;13.18;;
70953;SDS011;58618;47.490;8.736;2024-03-08T09:53:15;28.13;;;12.85;;
70953;SDS011;58618;47.490;8.736;2024-03-08T09:56:04;30.15;;;13.70;;
70953;SDS011;58618;47.490;8.736;2024-03-08T09:58:52;27.80;;;13.40;;
70953;SDS011;58618;47.490;8.736;2024-03-08T10:02:00;30.67;;;12.95;;
70953;SDS011;58618;47.490;8.736;2024-03-08T10:04:48;26.85;;;12.32;;
70953;SDS011;58618;47.490;8.736;2024-03-08T10:07:36;27.88;;;13.15;;
70953;SDS011;58618;47.490;8.736;2024-03-08T10:10:23;26.30;;;12.77;;
70953;SDS011;58618;47.490;8.736;2024-03-08T10:13:12;27.33;;;12.77;;
70953;SDS011;58618;47.490;8.736;2024-03-08T10:16:02;29.38;;;13.43;;
70953;SDS011;58618;47.490;8.736;2024-03-08T10:18:51;26.08;;;12.57;;
70953;SDS011;58618;47.490;8.736;2024-03-08T10:21:47;28.60;;;13.73;;
70953;SDS011;58618;47.490;8.736;2024-03-08T10:24:34;28.92;;;13.70;;
70953;SDS011;58618;47.490;8.736;2024-03-08T10:27:22;26.23;;;11.90;;
70953;SDS011;58618;47.490;8.736;2024-03-08T10:30:12;25.85;;;12.48;;
70953;SDS011;58618;47.490;8.736;2024-03-08T10:33:02;29.48;;;13.93;;
70953;SDS011;58618;47.490;8.736;2024-03-08T10:35:51;27.38;;;12.25;;
70953;SDS011;58618;47.490;8.736;2024-03-08T10:38:40;25.45;;;13.63;;
70953;SDS011;58618;47.490;8.736;2024-03-08T10:41:32;30.77;;;14.33;;
70953;SDS011;58618;47.490;8.736;2024-03-08T10:44:28;27.38;;;12.35;;
70953;SDS011;58618;47.490;8.736;2024-03-08T10:47:29;27.50;;;12.77;;
70953;SDS011;58618;47.490;8.736;2024-03-08T10:50:18;26.20;;;12.10;;
70953;SDS011;58618;47.490;8.736;2024-03-08T10:53:07;24.17;;;12.07;;
70953;SDS011;58618;47.490;8.736;2024-03-08T10:55:58;29.23;;;13.43;;
70953;SDS011;58618;47.490;8.736;2024-03-08T10:58:46;26.65;;;12.38;;
70953;SDS011;58618;47.490;8.736;2024-03-08T11:01:34;25.50;;;12.23;;
70953;SDS011;58618;47.490;8.736;2024-03-08T11:04:23;29.33;;;13.55;;
70953;SDS011;58618;47.490;8.736;2024-03-08T11:07:11;28.38;;;12.60;;
70953;SDS011;58618;47.490;8.736;2024-03-08T11:10:03;30.57;;;14.57;;
70953;SDS011;58618;47.490;8.736;2024-03-08T11:12:51;25.38;;;11.68;;
70953;SDS011;58618;47.490;8.736;2024-03-08T11:15:39;24.27;;;11.52;;
70953;SDS011;58618;47.490;8.736;2024-03-08T11:18:26;25.52;;;12.80;;
70953;SDS011;58618;47.490;8.736;2024-03-08T11:21:15;29.67;;;14.07;;
70953;SDS011;58618;47.490;8.736;2024-03-08T11:24:06;27.60;;;14.23;;
70953;SDS011;58618;47.490;8.736;2024-03-08T11:26:58;26.33;;;12.85;;
70953;SDS011;58618;47.490;8.736;2024-03-08T11:29:58;27.17;;;12.82;;
70953;SDS011;58618;47.490;8.736;2024-03-08T11:32:54;23.90;;;11.68;;
70953;SDS011;58618;47.490;8.736;2024-03-08T11:35:49;30.75;;;13.07;;
70953;SDS011;58618;47.490;8.736;2024-03-08T11:38:40;25.40;;;12.57;;
70953;SDS011;58618;47.490;8.736;2024-03-08T11:41:29;27.98;;;13.57;;
70953;SDS011;58618;47.490;8.736;2024-03-08T11:44:17;26.17;;;12.57;;
70953;SDS011;58618;47.490;8.736;2024-03-08T11:47:07;27.10;;;13.13;;
70953;SDS011;58618;47.490;8.736;2024-03-08T11:49:56;25.65;;;12.18;;
70953;SDS011;58618;47.490;8.736;2024-03-08T11:52:45;26.10;;;12.20;;
70953;SDS011;58618;47.490;8.736;2024-03-08T11:55:34;25.67;;;12.13;;
70953;SDS011;58618;47.490;8.736;2024-03-08T11:58:21;24.77;;;12.07;;
70953;SDS011;58618;47.490;8.736;2024-03-08T12:01:09;25.17;;;12.15;;
70953;SDS011;58618;47.490;8.736;2024-03-08T12:03:59;27.27;;;11.85;;
70953;SDS011;58618;47.490;8.736;2024-03-08T12:06:47;23.33;;;12.17;;
70953;SDS011;58618;47.490;8.736;2024-03-08T12:09:35;26.35;;;12.10;;
70953;SDS011;58618;47.490;8.736;2024-03-08T12:12:25;23.80;;;11.77;;
70953;SDS011;58618;47.490;8.736;2024-03-08T12:15:14;23.75;;;10.98;;
70953;SDS011;58618;47.490;8.736;2024-03-08T12:18:03;21.88;;;10.75;;
70953;SDS011;58618;47.490;8.736;2024-03-08T12:21:03;24.53;;;10.33;;
70953;SDS011;58618;47.490;8.736;2024-03-08T12:24:01;23.65;;;13.00;;
70953;SDS011;58618;47.490;8.736;2024-03-08T12:26:50;22.42;;;11.18;;
70953;SDS011;58618;47.490;8.736;2024-03-08T12:29:40;22.98;;;11.27;;
70953;SDS011;58618;47.490;8.736;2024-03-08T12:32:27;20.65;;;9.85;;
70953;SDS011;58618;47.490;8.736;2024-03-08T12:35:15;22.97;;;12.53;;
70953;SDS011;58618;47.490;8.736;2024-03-08T12:38:02;24.65;;;11.70;;
70953;SDS011;58618;47.490;8.736;2024-03-08T12:40:54;23.40;;;11.18;;
70953;SDS011;58618;47.490;8.736;2024-03-08T12:43:43;21.90;;;12.10;;
70953;SDS011;58618;47.490;8.736;2024-03-08T12:46:35;22.20;;;10.88;;
70953;SDS011;58618;47.490;8.736;2024-03-08T12:49:26;19.87;;;10.50;;
70953;SDS011;58618;47.490;8.736;2024-03-08T12:52:13;22.40;;;11.63;;
70953;SDS011;58618;47.490;8.736;2024-03-08T12:55:04;21.25;;;11.85;;
70953;SDS011;58618;47.490;8.736;2024-03-08T12:57:53;20.85;;;10.68;;
70953;SDS011;58618;47.490;8.736;2024-03-08T13:00:41;22.27;;;11.60;;
70953;SDS011;58618;47.490;8.736;2024-03-08T13:03:31;22.60;;;10.83;;
70953;SDS011;58618;47.490;8.736;2024-03-08T13:06:18;21.80;;;10.88;;
70953;SDS011;58618;47.490;8.736;2024-03-08T13:09:07;23.20;;;11.05;;
70953;SDS011;58618;47.490;8.736;2024-03-08T13:11:55;23.25;;;11.18;;
70953;SDS011;58618;47.490;8.736;2024-03-08T13:14:44;21.98;;;10.20;;
70953;SDS011;58618;47.490;8.736;2024-03-08T13:17:32;19.33;;;10.57;;
70953;SDS011;58618;47.490;8.736;2024-03-08T13:20:21;22.23;;;10.70;;
70953;SDS011;58618;47.490;8.736;2024-03-08T13:23:09;23.92;;;11.07;;
70953;SDS011;58618;47.490;8.736;2024-03-08T13:25:56;19.67;;;10.93;;
70953;SDS011;58618;47.490;8.736;2024-03-08T13:28:45;22.33;;;10.70;;
70953;SDS011;58618;47.490;8.736;2024-03-08T13:31:34;20.20;;;10.40;;
70953;SDS011;58618;47.490;8.736;2024-03-08T13:34:22;18.70;;;10.32;;
70953;SDS011;58618;47.490;8.736;2024-03-08T13:37:16;20.50;;;10.63;;
70953;SDS011;58618;47.490;8.736;2024-03-08T13:40:04;21.00;;;10.25;;
70953;SDS011;58618;47.490;8.736;2024-03-08T13:42:56;20.08;;;10.73;;
70953;SDS011;58618;47.490;8.736;2024-03-08T13:45:46;21.63;;;10.53;;
70953;SDS011;58618;47.490;8.736;2024-03-08T13:48:34;22.67;;;10.57;;
70953;SDS011;58618;47.490;8.736;2024-03-08T13:51:23;17.85;;;9.48;;
70953;SDS011;58618;47.490;8.736;2024-03-08T13:54:13;21.95;;;11.50;;
70953;SDS011;58618;47.490;8.736;2024-03-08T13:57:02;23.55;;;11.45;;
70953;SDS011;58618;47.490;8.736;2024-03-08T13:59:50;21.77;;;12.57;;
70953;SDS011;58618;47.490;8.736;2024-03-08T14:02:38;24.88;;;12.30;;
70953;SDS011;58618;47.490;8.736;2024-03-08T14:05:26;21.10;;;10.70;;
70953;SDS011;58618;47.490;8.736;2024-03-08T14:08:13;22.13;;;11.85;;
70953;SDS011;58618;47.490;8.736;2024-03-08T14:11:04;19.60;;;10.50;;
70953;SDS011;58618;47.490;8.736;2024-03-08T14:13:57;21.57;;;10.83;;
70953;SDS011;58618;47.490;8.736;2024-03-08T14:16:44;22.15;;;12.20;;
70953;SDS011;58618;47.490;8.736;2024-03-08T14:19:32;21.90;;;11.27;;
70953;SDS011;58618;47.490;8.736;2024-03-08T14:22:19;21.52;;;12.00;;
70953;SDS011;58618;47.490;8.736;2024-03-08T14:25:07;21.73;;;10.82;;
70953;SDS011;58618;47.490;8.736;2024-03-08T14:28:04;21.63;;;11.53;;
70953;SDS011;58618;47.490;8.736;2024-03-08T14:30:53;20.30;;;11.32;;
70953;SDS011;58618;47.490;8.736;2024-03-08T14:33:41;21.55;;;11.52;;
70953;SDS011;58618;47.490;8.736;2024-03-08T14:36:28;22.33;;;11.35;;
70953;SDS011;58618;47.490;8.736;2024-03-08T14:39:16;20.77;;;10.48;;
70953;SDS011;58618;47.490;8.736;2024-03-08T14:42:07;21.03;;;10.87;;
70953;SDS011;58618;47.490;8.736;2024-03-08T14:45:00;22.38;;;11.32;;
70953;SDS011;58618;47.490;8.736;2024-03-08T14:47:50;22.05;;;11.00;;
70953;SDS011;58618;47.490;8.736;2024-03-08T14:50:48;22.05;;;12.80;;
70953;SDS011;58618;47.490;8.736;2024-03-08T14:53:36;20.17;;;11.02;;
70953;SDS011;58618;47.490;8.736;2024-03-08T14:56:26;20.23;;;10.27;;
70953;SDS011;58618;47.490;8.736;2024-03-08T14:59:13;24.65;;;13.73;;
70953;SDS011;58618;47.490;8.736;2024-03-08T15:02:02;24.00;;;11.43;;
70953;SDS011;58618;47.490;8.736;2024-03-08T15:04:52;22.38;;;12.18;;
70953;SDS011;58618;47.490;8.736;2024-03-08T15:07:44;19.70;;;11.63;;
70953;SDS011;58618;47.490;8.736;2024-03-08T15:10:32;21.07;;;11.63;;
70953;SDS011;58618;47.490;8.736;2024-03-08T15:13:19;24.02;;;13.63;;
70953;SDS011;58618;47.490;8.736;2024-03-08T15:16:08;20.95;;;11.68;;
70953;SDS011;58618;47.490;8.736;2024-03-08T15:19:02;24.55;;;12.40;;
70953;SDS011;58618;47.490;8.736;2024-03-08T15:21:51;25.08;;;12.60;;
70953;SDS011;58618;47.490;8.736;2024-03-08T15:24:41;25.33;;;12.23;;
70953;SDS011;58618;47.490;8.736;2024-03-08T15:27:29;21.08;;;12.55;;
70953;SDS011;58618;47.490;8.736;2024-03-08T15:30:17;24.15;;;11.73;;
70953;SDS011;58618;47.490;8.736;2024-03-08T15:33:08;20.85;;;10.88;;
70953;SDS011;58618;47.490;8.736;2024-03-08T15:35:57;21.00;;;11.05;;
70953;SDS011;58618;47.490;8.736;2024-03-08T15:38:49;21.27;;;12.37;;
70953;SDS011;58618;47.490;8.736;2024-03-08T15:41:36;20.83;;;13.40;;
70953;SDS011;58618;47.490;8.736;2024-03-08T15:44:24;21.90;;;11.68;;
70953;SDS011;58618;47.490;8.736;2024-03-08T15:47:13;22.08;;;12.18;;
70953;SDS011;58618;47.490;8.736;2024-03-08T15:50:02;23.73;;;13.25;;
70953;SDS011;58618;47.490;8.736;2024-03-08T15:52:51;24.53;;;13.33;;
70953;SDS011;58618;47.490;8.736;2024-03-08T15:55:39;25.38;;;12.85;;
70953;SDS011;58618;47.490;8.736;2024-03-08T15:58:27;24.05;;;12.77;;
70953;SDS011;58618;47.490;8.736;2024-03-08T16:01:15;22.20;;;11.85;;
70953;SDS011;58618;47.490;8.736;2024-03-08T16:04:03;23.92;;;13.52;;
70953;SDS011;58618;47.490;8.736;2024-03-08T16:06:52;23.87;;;12.83;;
70953;SDS011;58618;47.490;8.736;2024-03-08T16:09:41;20.85;;;11.20;;
70953;SDS011;58618;47.490;8.736;2024-03-08T16:12:29;24.25;;;13.00;;
70953;SDS011;58618;47.490;8.736;2024-03-08T16:15:16;24.15;;;14.27;;
70953;SDS011;58618;47.490;8.736;2024-03-08T16:18:06;22.65;;;12.98;;
70953;SDS011;58618;47.490;8.736;2024-03-08T16:20:56;22.70;;;12.60;;
70953;SDS011;58618;47.490;8.736;2024-03-08T16:23:43;24.13;;;12.02;;
70953;SDS011;58618;47.490;8.736;2024-03-08T16:26:33;22.58;;;13.07;;